createdAt,value
2023-04-01T00:02:05.415Z,99.90
2023-04-01T00:04:33.344Z,99.90
2023-04-01T00:07:02.651Z,99.90
2023-04-01T00:09:31.159Z,99.90
2023-04-01T00:11:58.939Z,99.90
2023-04-01T00:14:26.753Z,99.90
2023-04-01T00:16:54.657Z,99.90
2023-04-01T00:19:23.804Z,99.90
2023-04-01T00:21:53.163Z,99.90
2023-04-01T00:24:21.081Z,99.90
2023-04-01T00:26:49.022Z,99.90
2023-04-01T00:29:16.838Z,99.90
2023-04-01T00:31:44.635Z,99.90
2023-04-01T00:34:12.490Z,99.90
2023-04-01T00:36:41.645Z,99.90
2023-04-01T00:39:09.566Z,99.90
2023-04-01T00:41:37.637Z,99.90
2023-04-01T00:44:17.484Z,99.90
2023-04-01T00:46:45.327Z,99.90
2023-04-01T00:49:13.122Z,99.90
2023-04-01T00:51:42.463Z,99.90
2023-04-01T00:54:10.333Z,99.90
2023-04-01T00:56:39.173Z,99.90
2023-04-01T00:59:09.293Z,99.90
2023-04-01T01:01:37.198Z,99.90
2023-04-01T01:04:05.380Z,99.90
2023-04-01T01:06:40.901Z,99.90
2023-04-01T01:09:18.965Z,99.90
2023-04-01T01:11:49.515Z,99.90
2023-04-01T01:14:41.279Z,99.90
2023-04-01T01:17:12.543Z,99.90
2023-04-01T01:19:53.190Z,99.90
2023-04-01T01:22:31.575Z,99.90
2023-04-01T01:25:09.052Z,99.90
2023-04-01T01:27:37.003Z,99.90
2023-04-01T01:30:19.370Z,99.90
2023-04-01T01:33:32.352Z,99.90
2023-04-01T01:36:01.766Z,99.90
2023-04-01T01:38:31.032Z,99.90
2023-04-01T01:40:58.981Z,99.90
2023-04-01T01:43:27.893Z,99.90
2023-04-01T01:45:57.027Z,99.90
2023-04-01T01:48:25.311Z,99.90
2023-04-01T01:50:53.114Z,99.90
2023-04-01T01:53:22.357Z,99.90
2023-04-01T01:55:50.169Z,99.90
2023-04-01T01:58:20.043Z,99.90
2023-04-01T02:00:50.501Z,99.90
2023-04-01T02:03:52.326Z,99.90
2023-04-01T02:06:21.252Z,99.90
2023-04-01T02:08:52.787Z,99.90
2023-04-01T02:11:22.415Z,99.90
2023-04-01T02:13:52.042Z,99.90
2023-04-01T02:16:22.951Z,99.90
2023-04-01T02:18:51.374Z,99.90
2023-04-01T02:21:19.461Z,99.90
2023-04-01T02:23:47.254Z,99.90
2023-04-01T02:26:16.388Z,99.90
2023-04-01T02:28:44.230Z,99.90
2023-04-01T02:31:12.277Z,99.90
2023-04-01T02:33:40.556Z,99.90
2023-04-01T02:36:09.443Z,99.90
2023-04-01T02:38:37.907Z,99.90
2023-04-01T02:41:06.207Z,99.90
2023-04-01T02:43:35.503Z,99.90
2023-04-01T02:46:03.765Z,99.90
2023-04-01T02:48:31.709Z,99.90
2023-04-01T02:50:59.509Z,99.90
2023-04-01T02:53:27.312Z,99.90
2023-04-01T02:55:55.110Z,99.90
2023-04-01T02:58:22.915Z,99.90
2023-04-01T03:00:52.135Z,99.90
2023-04-01T03:03:20.053Z,99.90
2023-04-01T03:05:47.885Z,99.90
2023-04-01T03:08:15.793Z,99.90
2023-04-01T03:10:43.582Z,99.90
2023-04-01T03:13:11.867Z,99.90
2023-04-01T03:15:39.670Z,99.90
2023-04-01T03:18:08.926Z,99.90
2023-04-01T03:20:36.710Z,99.90
2023-04-01T03:23:04.532Z,99.90
2023-04-01T03:25:32.690Z,99.90
2023-04-01T03:28:01.087Z,99.90
2023-04-01T03:30:30.913Z,99.90
2023-04-01T03:32:59.173Z,99.90
2023-04-01T03:35:28.401Z,99.90
2023-04-01T03:37:56.496Z,99.90
2023-04-01T03:40:24.551Z,99.90
2023-04-01T03:42:53.079Z,99.90
2023-04-01T03:45:21.478Z,99.90
2023-04-01T03:47:49.320Z,99.90
2023-04-01T03:50:17.310Z,99.90
2023-04-01T03:52:46.725Z,99.90
2023-04-01T03:55:14.605Z,99.90
2023-04-01T03:57:42.386Z,99.90
2023-04-01T04:00:11.104Z,99.90
2023-04-01T04:02:38.971Z,99.90
2023-04-01T04:05:07.938Z,99.90
2023-04-01T04:07:36.496Z,99.90
2023-04-01T04:10:06.173Z,99.90
2023-04-01T04:12:33.999Z,99.90
2023-04-01T04:15:01.795Z,99.90
2023-04-01T04:17:29.637Z,99.90
2023-04-01T04:19:57.487Z,99.90
2023-04-01T04:22:25.300Z,99.90
2023-04-01T04:24:53.096Z,99.90
2023-04-01T04:27:22.263Z,99.90
2023-04-01T04:29:50.059Z,99.90
2023-04-01T04:32:17.866Z,99.90
2023-04-01T04:34:45.668Z,99.90
2023-04-01T04:37:13.464Z,99.90
2023-04-01T04:39:41.245Z,99.90
2023-04-01T04:42:09.030Z,99.90
2023-04-01T04:44:38.280Z,99.90
2023-04-01T04:47:06.137Z,99.90
2023-04-01T04:49:34.075Z,99.90
2023-04-01T04:52:01.878Z,99.90
2023-04-01T04:54:29.692Z,99.90
2023-04-01T04:56:57.561Z,99.90
2023-04-01T04:59:25.410Z,99.90
2023-04-01T05:01:54.575Z,99.90
2023-04-01T05:04:22.404Z,99.90
2023-04-01T05:06:50.335Z,99.90
2023-04-01T05:09:18.178Z,99.90
2023-04-01T05:11:45.986Z,99.90
2023-04-01T05:14:16.994Z,99.90
2023-04-01T05:16:44.904Z,99.90
2023-04-01T05:19:14.109Z,99.90
2023-04-01T05:21:41.894Z,99.90
2023-04-01T05:24:10.666Z,99.90
2023-04-01T05:26:38.775Z,99.90
2023-04-01T05:29:06.687Z,99.90
2023-04-01T05:31:34.472Z,99.90
2023-04-01T05:34:02.528Z,99.90
2023-04-01T05:36:31.894Z,99.90
2023-04-01T05:38:59.705Z,99.90
2023-04-01T05:41:27.514Z,99.90
2023-04-01T05:43:55.839Z,99.90
2023-04-01T05:46:23.661Z,99.90
2023-04-01T05:48:51.505Z,99.90
2023-04-01T05:51:19.303Z,99.90
2023-04-01T05:53:48.452Z,99.90
2023-04-01T05:56:16.360Z,99.90
2023-04-01T05:58:44.199Z,99.90
2023-04-01T06:01:15.881Z,99.90
2023-04-01T06:03:44.511Z,99.90
2023-04-01T06:06:16.441Z,99.90
2023-04-01T06:08:44.298Z,99.90
2023-04-01T06:11:21.203Z,99.90
2023-04-01T06:14:01.650Z,99.90
2023-04-01T06:16:33.099Z,99.90
2023-04-01T06:19:08.136Z,99.90
2023-04-01T06:22:02.876Z,99.90
2023-04-01T06:24:39.136Z,99.90
2023-04-01T06:27:13.104Z,99.90
2023-04-01T06:29:49.467Z,99.90
2023-04-01T06:32:48.330Z,99.90
2023-04-01T06:35:28.458Z,99.90
2023-04-01T06:38:19.324Z,99.90
2023-04-01T06:41:02.790Z,99.90
2023-04-01T06:43:36.350Z,99.90
2023-04-01T06:46:07.570Z,99.90
2023-04-01T06:48:47.653Z,99.90
2023-04-01T06:51:22.757Z,99.90
2023-04-01T06:53:54.376Z,99.90
2023-04-01T06:56:23.841Z,99.90
2023-04-01T06:58:54.973Z,99.90
2023-04-01T07:01:24.304Z,99.90
2023-04-01T07:03:53.591Z,99.90
2023-04-01T07:06:25.928Z,99.90
2023-04-01T07:08:54.289Z,99.90
2023-04-01T07:11:27.137Z,99.90
2023-04-01T07:13:57.153Z,99.90
2023-04-01T07:16:27.861Z,99.90
2023-04-01T07:18:58.443Z,99.90
2023-04-01T07:21:29.042Z,99.90
2023-04-01T07:24:00.035Z,99.90
2023-04-01T07:26:27.886Z,99.90
2023-04-01T07:28:57.050Z,99.90
2023-04-01T07:31:32.754Z,99.90
2023-04-01T07:34:03.746Z,99.90
2023-04-01T07:36:35.697Z,99.90
2023-04-01T07:39:09.258Z,99.90
2023-04-01T07:41:42.536Z,99.90
2023-04-01T07:44:14.470Z,99.90
2023-04-01T07:47:14.901Z,99.90
2023-04-01T07:49:47.801Z,99.90
2023-04-01T07:52:18.239Z,99.90
2023-04-01T07:54:48.547Z,99.90
2023-04-01T07:57:19.006Z,99.90
2023-04-01T07:59:53.008Z,99.90
2023-04-01T08:02:28.069Z,99.90
2023-04-01T08:05:01.267Z,99.90
2023-04-01T08:07:32.254Z,99.90
2023-04-01T08:10:02.803Z,99.90
2023-04-01T08:12:37.722Z,99.90
2023-04-01T08:15:12.896Z,99.90
2023-04-01T08:17:45.816Z,99.90
2023-04-01T08:20:20.276Z,99.90
2023-04-01T08:22:50.907Z,99.90
2023-04-01T08:25:19.914Z,99.90
2023-04-01T08:27:48.424Z,99.90
2023-04-01T08:30:21.455Z,99.90
2023-04-01T08:32:56.271Z,99.90
2023-04-01T08:35:31.018Z,94.70
2023-04-01T08:38:04.918Z,99.90
2023-04-01T08:40:51.968Z,99.90
2023-04-01T08:43:24.525Z,97.00
2023-04-01T08:46:24.813Z,94.90
2023-04-01T08:49:08.164Z,49.20
2023-04-01T08:51:58.198Z,54.50
2023-04-01T08:54:48.340Z,42.60
2023-04-01T08:57:21.032Z,45.40
2023-04-01T08:59:57.044Z,51.10
2023-04-01T09:03:05.091Z,49.70
2023-04-01T09:06:02.204Z,39.30
2023-04-01T09:08:35.271Z,43.10
2023-04-01T09:11:18.762Z,30.60
2023-04-01T09:13:58.714Z,30.50
2023-04-01T09:16:37.994Z,27.80
2023-04-01T09:19:26.667Z,43.10
2023-04-01T09:22:23.898Z,34.90
2023-04-01T09:25:30.839Z,27.80
2023-04-01T09:28:01.678Z,34.60
2023-04-01T09:30:42.976Z,54.80
2023-04-01T09:33:45.374Z,40.50
2023-04-01T09:36:20.012Z,44.30
2023-04-01T09:38:57.766Z,59.20
2023-04-01T09:41:31.290Z,55.60
2023-04-01T09:44:12.353Z,62.80
2023-04-01T09:46:49.004Z,73.00
2023-04-01T09:49:39.069Z,81.80
2023-04-01T09:52:12.567Z,67.50
2023-04-01T09:54:56.538Z,90.50
2023-04-01T09:58:02.822Z,76.50
2023-04-01T10:00:56.125Z,82.80
2023-04-01T10:04:02.292Z,86.70
2023-04-01T10:07:00.757Z,67.40
2023-04-01T10:10:05.037Z,61.80
2023-04-01T10:13:06.469Z,61.80
2023-04-01T10:16:01.344Z,58.90
2023-04-01T10:19:01.778Z,67.50
2023-04-01T10:22:14.767Z,62.50
2023-04-01T10:25:13.370Z,51.80
2023-04-01T10:28:05.834Z,67.10
2023-04-01T10:31:09.365Z,66.70
2023-04-01T10:34:01.956Z,60.80
2023-04-01T10:36:55.141Z,87.50
2023-04-01T10:39:55.396Z,74.30
2023-04-01T10:42:59.147Z,84.40
2023-04-01T10:46:01.455Z,95.30
2023-04-01T10:48:50.711Z,99.80
2023-04-01T10:51:40.099Z,99.90
2023-04-01T10:54:25.159Z,96.30
2023-04-01T10:56:57.293Z,95.50
2023-04-01T10:59:53.449Z,94.40
2023-04-01T11:03:15.271Z,92.60
2023-04-01T11:06:07.608Z,96.90
2023-04-01T11:09:26.566Z,94.00
2023-04-01T11:12:30.826Z,91.50
2023-04-01T11:15:28.934Z,99.90
2023-04-01T11:18:24.353Z,99.90
2023-04-01T11:21:17.724Z,99.90
2023-04-01T11:24:07.115Z,99.90
2023-04-01T11:26:35.836Z,99.90
2023-04-01T11:29:17.457Z,99.90
2023-04-01T11:31:57.431Z,99.90
2023-04-01T11:34:34.687Z,99.90
2023-04-01T11:37:07.137Z,99.90
2023-04-01T11:39:38.512Z,99.90
2023-04-01T11:42:15.733Z,99.90
2023-04-01T11:44:48.995Z,99.90
2023-04-01T11:47:25.019Z,99.90
2023-04-01T11:49:58.999Z,99.90
2023-04-01T11:52:42.427Z,99.90
2023-04-01T11:55:22.074Z,99.90
2023-04-01T11:57:58.873Z,99.90
2023-04-01T12:00:41.493Z,99.90
2023-04-01T12:03:19.282Z,99.90
2023-04-01T12:05:48.166Z,99.90
2023-04-01T12:08:22.955Z,99.90
2023-04-01T12:10:54.002Z,99.90
2023-04-01T12:13:29.350Z,99.90
2023-04-01T12:16:06.891Z,99.90
2023-04-01T12:18:37.752Z,99.90
2023-04-01T12:21:10.378Z,99.90
2023-04-01T12:24:05.953Z,99.90
2023-04-01T12:26:55.058Z,99.90
2023-04-01T12:29:45.423Z,99.90
2023-04-01T12:32:19.597Z,99.90
2023-04-01T12:34:59.050Z,99.90
2023-04-01T12:37:31.502Z,99.90
2023-04-01T12:40:29.568Z,99.90
2023-04-01T12:43:25.286Z,99.90
2023-04-01T12:45:56.876Z,99.90
2023-04-01T12:48:46.662Z,99.90
2023-04-01T12:51:28.804Z,99.90
2023-04-01T12:57:12.571Z,99.90
2023-04-01T12:59:52.169Z,99.90
2023-04-01T13:02:24.975Z,99.90
2023-04-01T13:08:43.692Z,99.90
2023-04-01T13:11:14.928Z,99.90
2023-04-01T13:14:07.385Z,99.90
2023-04-01T13:16:37.292Z,99.90
2023-04-01T13:19:07.415Z,99.90
2023-04-01T13:21:41.137Z,99.90
2023-04-01T13:24:15.604Z,99.90
2023-04-01T13:26:47.421Z,99.90
2023-04-01T13:29:16.704Z,99.90
2023-04-01T13:31:57.385Z,99.90
2023-04-01T13:34:32.731Z,99.90
2023-04-01T13:37:12.729Z,99.90
2023-04-01T13:39:50.085Z,99.90
2023-04-01T13:42:25.849Z,99.90
2023-04-01T13:44:55.726Z,99.90
2023-04-01T13:47:33.676Z,99.90
2023-04-01T13:50:17.518Z,99.90
2023-04-01T13:53:06.616Z,99.90
2023-04-01T13:56:02.509Z,99.90
2023-04-01T13:58:45.460Z,99.90
2023-04-01T14:01:15.531Z,99.90
2023-04-01T14:03:50.754Z,99.90
2023-04-01T14:06:27.553Z,99.90
2023-04-01T14:09:39.018Z,99.90
2023-04-01T14:12:22.024Z,99.90
2023-04-01T14:14:58.317Z,99.90
2023-04-01T14:17:37.243Z,99.90
2023-04-01T14:20:35.442Z,99.90
2023-04-01T14:23:15.726Z,99.90
2023-04-01T14:26:40.492Z,99.90
2023-04-01T14:29:17.314Z,99.90
2023-04-01T14:31:50.598Z,99.90
2023-04-01T14:34:24.313Z,99.90
2023-04-01T14:37:02.430Z,99.90
2023-04-01T14:40:05.876Z,99.90
2023-04-01T14:42:47.298Z,99.90
2023-04-01T14:45:26.962Z,99.90
2023-04-01T14:47:56.069Z,99.90
2023-04-01T14:50:25.070Z,99.90
2023-04-01T14:52:59.323Z,99.90
2023-04-01T14:55:31.596Z,99.90
2023-04-01T14:58:10.154Z,99.90
2023-04-01T15:01:02.550Z,99.90
2023-04-01T15:03:32.037Z,99.90
2023-04-01T15:06:16.885Z,99.90
2023-04-01T15:08:46.512Z,99.90
2023-04-01T15:11:27.940Z,99.90
2023-04-01T15:14:11.226Z,99.90
2023-04-01T15:16:47.522Z,99.90
2023-04-01T15:19:19.478Z,99.90
2023-04-01T15:21:52.979Z,99.90
2023-04-01T15:24:23.880Z,99.90
2023-04-01T15:27:12.698Z,99.90
2023-04-01T15:30:09.051Z,99.90
2023-04-01T15:32:49.444Z,99.90
2023-04-01T15:35:30.880Z,99.90
2023-04-01T15:37:59.396Z,99.90
2023-04-01T15:40:30.743Z,99.90
2023-04-01T15:43:06.148Z,99.90
2023-04-01T15:45:38.967Z,99.90
2023-04-01T15:48:16.557Z,99.90
2023-04-01T15:50:55.585Z,99.90
2023-04-01T15:53:39.945Z,99.90
2023-04-01T15:56:17.907Z,99.90
2023-04-01T15:58:52.168Z,99.90
2023-04-01T16:01:28.015Z,99.90
2023-04-01T16:03:59.771Z,99.90
2023-04-01T16:06:53.038Z,99.90
2023-04-01T16:09:28.239Z,99.90
2023-04-01T16:11:59.148Z,99.90
2023-04-01T16:14:35.674Z,99.90
2023-04-01T16:17:11.960Z,99.90
2023-04-01T16:20:13.299Z,99.90
2023-04-01T16:22:42.875Z,99.90
2023-04-01T16:25:22.524Z,99.90
2023-04-01T16:27:54.890Z,99.90
2023-04-01T16:30:34.956Z,99.90
2023-04-01T16:33:05.010Z,99.90
2023-04-01T16:35:39.498Z,99.90
2023-04-01T16:38:11.188Z,99.90
2023-04-01T16:40:52.583Z,99.90
2023-04-01T16:43:23.880Z,99.90
2023-04-01T16:45:59.891Z,99.90
2023-04-01T16:48:30.369Z,99.90
2023-04-01T16:51:01.282Z,99.90
2023-04-01T16:53:38.005Z,99.90
2023-04-01T16:56:10.065Z,99.90
2023-04-01T16:58:38.858Z,99.90
2023-04-01T17:01:09.569Z,99.90
2023-04-01T17:03:40.295Z,99.90
2023-04-01T17:06:22.059Z,99.90
2023-04-01T17:08:57.586Z,99.90
2023-04-01T17:11:27.227Z,99.90
2023-04-01T17:14:00.471Z,99.90
2023-04-01T17:16:50.042Z,99.90
2023-04-01T17:19:27.119Z,99.90
2023-04-01T17:22:02.843Z,99.90
2023-04-01T17:24:38.834Z,99.90
2023-04-01T17:27:12.720Z,99.90
2023-04-01T17:29:58.278Z,99.90
2023-04-01T17:32:31.794Z,99.90
2023-04-01T17:35:00.862Z,99.90
2023-04-01T17:37:36.842Z,99.90
2023-04-01T17:40:32.405Z,99.90
2023-04-01T17:43:04.034Z,99.90
2023-04-01T17:45:34.331Z,99.90
2023-04-01T17:48:06.157Z,99.90
2023-04-01T17:50:46.131Z,99.90
2023-04-01T17:53:20.426Z,99.90
2023-04-01T17:56:05.646Z,99.90
2023-04-01T17:58:36.483Z,99.90
2023-04-01T18:01:12.693Z,99.90
2023-04-01T18:04:19.951Z,99.90
2023-04-01T18:06:56.232Z,99.90
2023-04-01T18:09:29.109Z,99.90
2023-04-01T18:12:01.413Z,99.90
2023-04-01T18:14:47.401Z,99.90
2023-04-01T18:17:26.385Z,99.90
2023-04-01T18:20:04.120Z,99.90
2023-04-01T18:22:38.437Z,99.90
2023-04-01T18:25:20.500Z,99.90
2023-04-01T18:27:52.591Z,99.90
2023-04-01T18:30:22.638Z,99.90
2023-04-01T18:32:52.303Z,99.90
2023-04-01T18:35:24.677Z,99.90
2023-04-01T18:42:19.011Z,99.90
2023-04-01T18:44:48.790Z,99.90
2023-04-01T18:54:47.618Z,99.90
2023-04-01T18:57:17.679Z,99.90
2023-04-01T19:00:23.369Z,99.90
2023-04-01T19:02:53.101Z,99.90
2023-04-01T19:05:21.775Z,99.90
2023-04-01T19:07:50.523Z,99.90
2023-04-01T19:10:23.801Z,99.90
2023-04-01T19:13:07.812Z,99.90
2023-04-01T19:15:39.692Z,99.90
2023-04-01T19:18:36.201Z,99.90
2023-04-01T19:21:07.021Z,99.90
2023-04-01T19:23:55.875Z,99.90
2023-04-01T19:26:24.690Z,99.90
2023-04-01T19:28:56.461Z,99.90
2023-04-01T19:31:37.886Z,99.90
2023-04-01T19:37:53.743Z,99.90
2023-04-01T19:40:47.869Z,99.90
2023-04-01T19:43:24.986Z,99.90
2023-04-01T19:45:56.533Z,99.90
2023-04-01T19:48:38.987Z,99.90
2023-04-01T19:51:09.572Z,99.90
2023-04-01T19:53:39.305Z,99.90
2023-04-01T19:56:09.654Z,99.90
2023-04-01T19:58:40.445Z,99.90
2023-04-01T20:01:10.202Z,99.90
2023-04-01T20:07:21.224Z,99.90
2023-04-01T20:09:52.986Z,99.90
2023-04-01T20:12:28.057Z,99.90
2023-04-01T20:14:57.005Z,99.90
2023-04-01T20:17:27.119Z,99.90
2023-04-01T20:19:58.049Z,99.90
2023-04-01T20:22:34.208Z,99.90
2023-04-01T20:25:03.561Z,99.90
2023-04-01T20:27:33.696Z,99.90
2023-04-01T20:30:11.294Z,99.90
2023-04-01T20:32:48.313Z,99.90
2023-04-01T20:35:22.342Z,99.90
2023-04-01T20:37:53.757Z,99.90
2023-04-01T20:40:36.408Z,99.90
2023-04-01T20:43:27.168Z,99.90
2023-04-01T20:45:58.893Z,99.90
2023-04-01T20:48:50.916Z,99.90
2023-04-01T20:51:20.150Z,99.90
2023-04-01T20:53:52.796Z,99.90
2023-04-01T20:56:32.910Z,99.90
2023-04-01T21:02:54.978Z,99.90
2023-04-01T21:05:47.870Z,99.90
2023-04-01T21:08:18.786Z,99.90
2023-04-01T21:10:49.556Z,99.90
2023-04-01T21:13:23.714Z,99.90
2023-04-01T21:15:57.966Z,99.90
2023-04-01T21:18:41.271Z,99.90
2023-04-01T21:21:32.057Z,99.90
2023-04-01T21:24:44.681Z,99.90
2023-04-01T21:27:16.032Z,99.90
2023-04-01T21:30:01.639Z,99.90
2023-04-01T21:32:39.347Z,99.90
2023-04-01T21:35:09.952Z,99.90
2023-04-01T21:38:01.523Z,99.90
2023-04-01T21:40:52.097Z,99.90
2023-04-01T21:43:48.108Z,99.90
2023-04-01T21:46:36.212Z,99.90
2023-04-01T21:49:22.821Z,99.90
2023-04-01T21:52:26.362Z,99.90
2023-04-01T21:55:08.489Z,99.90
2023-04-01T21:58:00.861Z,99.90
2023-04-01T22:00:31.176Z,99.90
2023-04-01T22:03:27.912Z,99.90
2023-04-01T22:05:59.009Z,99.90
2023-04-01T22:08:51.048Z,99.90
2023-04-01T22:11:25.424Z,99.90
2023-04-01T22:13:55.976Z,99.90
2023-04-01T22:16:27.752Z,99.90
2023-04-01T22:19:00.876Z,99.90
2023-04-01T22:21:31.622Z,99.90
2023-04-01T22:24:02.233Z,99.90
2023-04-01T22:26:34.197Z,99.90
2023-04-01T22:29:05.218Z,99.90
2023-04-01T22:31:35.869Z,99.90
2023-04-01T22:34:07.280Z,99.90
2023-04-01T22:36:39.033Z,99.90
2023-04-01T22:39:17.526Z,99.90
2023-04-01T22:41:53.777Z,99.90
2023-04-01T22:44:28.345Z,99.90
2023-04-01T22:47:00.403Z,99.90
2023-04-01T22:49:29.912Z,99.90
2023-04-01T22:51:59.033Z,99.90
2023-04-01T22:54:29.869Z,99.90
2023-04-01T22:57:01.702Z,99.90
2023-04-01T22:59:33.743Z,99.90
2023-04-01T23:02:03.175Z,99.90
2023-04-01T23:04:33.322Z,99.90
2023-04-01T23:07:03.325Z,99.90
2023-04-01T23:09:31.739Z,99.90
2023-04-01T23:12:03.818Z,99.90
2023-04-01T23:14:47.408Z,99.90
2023-04-01T23:17:38.368Z,99.90
2023-04-01T23:20:13.512Z,99.90
2023-04-01T23:22:45.664Z,99.90
2023-04-01T23:25:19.763Z,99.90
2023-04-01T23:27:52.107Z,99.90
2023-04-01T23:30:51.080Z,99.90
2023-04-01T23:33:24.305Z,99.90
2023-04-01T23:35:52.551Z,99.90
2023-04-01T23:38:20.864Z,99.90
2023-04-01T23:40:49.312Z,99.90
2023-04-01T23:43:22.001Z,99.90
2023-04-01T23:45:49.969Z,99.90
2023-04-01T23:48:17.875Z,99.90
2023-04-01T23:50:45.827Z,99.90
2023-04-01T23:53:17.087Z,99.90
2023-04-01T23:55:44.916Z,99.90
2023-04-01T23:58:18.658Z,99.90
